Time;durP1;ratioP1;P1;durP2;ratioP2;P2;SDS_P1;SDS_P2;PMS_P1;PMS_P2;Temp;Humidity;BMP_temperature;BMP_pressure;BME280_temperature;BME280_humidity;BME280_pressure;Samples;Min_cycle;Max_cycle;Signal;HPM_P1;HPM_P2
2022/04/01 00:01:59;;;;;;;13.40;9.90;;;;;;;3.14;nan;96463.22;4991793;28;20137;-61
2022/04/01 00:04:24;;;;;;;14.90;11.03;;;;;;;3.34;nan;96481.25;4990250;28;20038;-60
2022/04/01 00:06:50;;;;;;;15.83;10.80;;;;;;;3.22;nan;96464.66;4991063;28;20030;-60
2022/04/01 00:09:15;;;;;;;15.73;11.30;;;;;;;3.14;nan;96466.53;4993842;28;20443;-60
2022/04/01 00:11:41;;;;;;;16.57;11.70;;;;;;;3.25;nan;96473.88;4990488;28;20443;-61
2022/04/01 00:14:06;;;;;;;16.67;12.00;;;;;;;3.26;nan;96480.63;4989837;28;20111;-60
2022/04/01 00:16:31;;;;;;;16.83;11.63;;;;;;;3.21;nan;96469.75;4991480;28;20527;-60
2022/04/01 00:18:57;;;;;;;20.00;14.07;;;;;;;3.16;nan;96451.31;4991394;28;20034;-61
2022/04/01 00:21:23;;;;;;;16.90;11.63;;;;;;;3.26;nan;96473.03;4990611;28;20046;-60
2022/04/01 00:23:49;;;;;;;19.93;13.03;;;;;;;3.23;nan;96468.00;4991095;28;20044;-60
2022/04/01 00:26:15;;;;;;;17.73;12.97;;;;;;;3.08;nan;96443.94;4995886;28;20435;-60
2022/04/01 00:28:40;;;;;;;19.20;13.83;;;;;;;3.25;nan;96471.34;4997404;28;20099;-60
2022/04/01 00:31:06;;;;;;;17.17;13.47;;;;;;;3.21;nan;96469.75;4995635;28;20049;-60
2022/04/01 00:33:31;;;;;;;17.67;13.23;;;;;;;3.22;nan;96468.91;4991776;28;20042;-60
2022/04/01 00:35:57;;;;;;;16.80;11.77;;;;;;;3.21;nan;96449.50;4993809;28;20185;-60
2022/04/01 00:38:24;;;;;;;16.47;13.20;;;;;;;3.05;nan;96453.31;4996927;28;20095;-60
2022/04/01 00:40:51;;;;;;;14.80;11.90;;;;;;;3.14;nan;96466.53;4997264;28;20034;-60
2022/04/01 00:43:24;;;;;;;16.60;12.60;;;;;;;3.13;nan;96467.44;4995288;28;20441;-60
2022/04/01 00:45:50;;;;;;;17.23;12.20;;;;;;;3.15;nan;96458.09;4997584;28;20041;-61
2022/04/01 00:48:17;;;;;;;17.60;13.20;;;;;;;3.13;nan;96451.41;4993704;28;20523;-61
2022/04/01 00:50:43;;;;;;;19.43;13.43;;;;;;;3.19;nan;96464.72;4995895;28;20053;-62
2022/04/01 00:53:08;;;;;;;18.03;12.67;;;;;;;3.22;nan;96458.78;4995058;28;20568;-61
2022/04/01 00:55:34;;;;;;;16.43;12.63;;;;;;;3.14;nan;96464.00;4999262;28;20145;-62
2022/04/01 00:58:00;;;;;;;17.87;13.30;;;;;;;3.02;nan;96445.75;4998664;28;20036;-59
2022/04/01 01:00:28;;;;;;;17.23;12.87;;;;;;;3.06;nan;96443.13;4996921;28;20400;-60
2022/04/01 01:02:54;;;;;;;16.60;12.40;;;;;;;3.04;nan;96444.88;4995918;28;20484;-60
2022/04/01 01:05:20;;;;;;;15.43;11.63;;;;;;;3.10;nan;96456.53;4994698;28;20033;-60
2022/04/01 01:07:45;;;;;;;18.70;13.50;;;;;;;3.08;nan;96455.75;4993648;28;20593;-60
2022/04/01 01:10:13;;;;;;;19.63;14.20;;;;;;;3.17;nan;96461.41;4994343;28;20034;-60
2022/04/01 01:12:41;;;;;;;19.73;13.77;;;;;;;3.13;nan;96448.88;5000088;28;20369;-61
2022/04/01 01:15:14;;;;;;;16.30;12.23;;;;;;;3.11;nan;96463.25;4997984;28;20520;-60
2022/04/01 01:17:40;;;;;;;15.27;11.43;;;;;;;3.12;nan;96462.41;4995685;28;20026;-61
2022/04/01 01:20:15;;;;;;;18.00;13.20;;;;;;;3.29;nan;96477.16;4993880;28;20030;-61
2022/04/01 01:22:52;;;;;;;;;;;;;;;3.19;nan;96472.31;4995529;28;20197;-60
2022/04/01 01:25:17;;;;;;;15.60;11.63;;;;;;;3.16;nan;96474.94;4994883;28;19914;-61
2022/04/01 01:27:43;;;;;;;19.67;12.77;;;;;;;3.22;nan;96469.72;4994340;28;20061;-62
2022/04/01 01:30:09;;;;;;;18.77;13.70;;;;;;;3.07;nan;96454.06;4996894;28;20048;-60
2022/04/01 01:32:35;;;;;;;16.33;13.03;;;;;;;3.20;nan;96474.00;4992676;28;20176;-61
2022/04/01 01:35:03;;;;;;;20.97;13.60;;;;;;;3.22;nan;96477.31;4992357;28;20029;-60
2022/04/01 01:37:29;;;;;;;15.17;11.93;;;;;;;3.09;nan;96460.78;4994626;28;20109;-60
2022/04/01 01:39:55;;;;;;;19.37;13.13;;;;;;;2.95;nan;96446.78;4998521;28;20036;-60
2022/04/01 01:42:20;;;;;;;16.17;12.13;;;;;;;3.13;nan;96477.56;4993709;28;20034;-61
2022/04/01 01:44:46;;;;;;;16.07;12.00;;;;;;;3.11;nan;96474.22;4995553;28;20069;-60
2022/04/01 01:47:12;;;;;;;14.97;10.93;;;;;;;3.00;nan;96455.94;4996159;28;20034;-60
2022/04/01 01:54:42;;;;;;;16.27;11.80;;;;;;;2.97;nan;96452.66;4995143;28;20042;-60
2022/04/01 01:55:08;;;;;;;17.33;12.03;;;;;;;3.11;nan;96470.84;4996461;28;20037;-60
2022/04/01 01:57:35;;;;;;;15.67;11.10;;;;;;;3.10;nan;96464.94;4996175;28;20042;-61
2022/04/01 02:00:10;;;;;;;17.87;12.10;;;;;;;3.07;nan;96466.72;4994256;28;20096;-63
2022/04/01 02:02:36;;;;;;;16.65;11.27;;;;;;;3.12;nan;96467.47;4990821;28;20467;-61
2022/04/01 02:05:02;;;;;;;17.57;13.63;;;;;;;3.11;nan;96470.84;4993416;28;20046;-61
2022/04/01 02:07:28;;;;;;;18.77;13.37;;;;;;;3.17;nan;96468.19;4993321;28;20041;-60
2022/04/01 02:09:53;;;;;;;18.50;13.00;;;;;;;3.18;nan;96464.78;4995182;28;20128;-60
2022/04/01 02:12:18;;;;;;;18.70;13.33;;;;;;;3.19;nan;96459.66;4993750;28;20479;-60
2022/04/01 02:14:44;;;;;;;17.17;11.87;;;;;;;3.22;nan;96466.38;4993512;28;20054;-61
2022/04/01 02:17:09;;;;;;;16.33;11.97;;;;;;;3.17;nan;96460.59;4994117;28;20109;-61
2022/04/01 02:19:35;;;;;;;16.13;13.07;;;;;;;3.16;nan;96456.38;4994168;28;20429;-60
2022/04/01 02:22:01;;;;;;;15.13;11.77;;;;;;;3.20;nan;96461.34;4995273;28;20037;-60
2022/04/01 02:24:27;;;;;;;17.07;12.80;;;;;;;3.23;nan;96473.06;4992791;28;20095;-60
2022/04/01 02:26:53;;;;;;;17.47;12.17;;;;;;;3.23;nan;96468.84;4995216;28;20041;-60
2022/04/01 02:29:20;;;;;;;17.13;12.63;;;;;;;3.15;nan;96467.38;4995593;28;20503;-61
2022/04/01 02:31:47;;;;;;;16.83;12.60;;;;;;;3.18;nan;96464.78;4992678;28;20048;-60
2022/04/01 02:34:13;;;;;;;18.97;12.93;;;;;;;3.26;nan;96457.00;4991959;28;20029;-60
2022/04/01 02:36:38;;;;;;;18.13;13.27;;;;;;;3.25;nan;96460.38;4995738;28;20083;-60
2022/04/01 02:39:05;;;;;;;18.40;12.47;;;;;;;3.16;nan;96459.75;4994462;28;20091;-60
2022/04/01 02:41:32;;;;;;;15.77;12.57;;;;;;;3.11;nan;96464.09;4994212;28;20041;-60
2022/04/01 02:44:12;;;;;;;15.90;12.50;;;;;;;3.14;nan;96458.94;4994061;28;20117;-59
2022/04/01 02:46:45;;;;;;;16.47;11.57;;;;;;;3.11;nan;96459.03;4992048;28;20072;-61
2022/04/01 02:49:15;;;;;;;15.37;11.30;;;;;;;3.18;nan;96455.47;4994911;28;20622;-60
2022/04/01 02:51:42;;;;;;;14.37;11.53;;;;;;;3.08;nan;96438.03;4992631;28;20037;-61
2022/04/01 02:54:08;;;;;;;14.90;11.47;;;;;;;3.12;nan;96457.34;4995008;28;20026;-61
2022/04/01 02:56:35;;;;;;;14.67;10.63;;;;;;;3.17;nan;96450.47;4992455;28;20038;-61
2022/04/01 02:59:02;;;;;;;16.43;12.00;;;;;;;3.03;nan;96445.72;4992397;28;20030;-61
2022/04/01 03:01:28;;;;;;;14.27;10.03;;;;;;;3.04;nan;96444.03;4993168;28;20408;-61
2022/04/01 03:03:55;;;;;;;17.20;11.10;;;;;;;2.95;nan;96434.13;4991737;28;20517;-61
2022/04/01 03:06:21;;;;;;;15.73;11.13;;;;;;;2.90;nan;96439.31;4992558;28;20601;-61
2022/04/01 03:08:47;;;;;;;15.80;11.20;;;;;;;3.04;nan;96456.69;4993182;28;20030;-61
2022/04/01 03:11:12;;;;;;;17.67;11.27;;;;;;;2.82;nan;96420.94;4993226;28;20085;-61
2022/04/01 03:13:38;;;;;;;15.17;11.30;;;;;;;2.95;nan;96431.59;4993665;28;20025;-60
2022/04/01 03:16:04;;;;;;;15.23;11.17;;;;;;;2.99;nan;96450.91;4993544;28;20137;-61
2022/04/01 03:18:29;;;;;;;15.90;11.23;;;;;;;3.00;nan;96460.16;4990595;28;20081;-60
2022/04/01 03:20:55;;;;;;;16.90;11.30;;;;;;;2.88;nan;96437.69;4993226;28;20049;-60
2022/04/01 03:23:20;;;;;;;17.10;12.37;;;;;;;2.90;nan;96441.00;4993130;28;20042;-61
2022/04/01 03:25:46;;;;;;;17.33;11.97;;;;;;;2.97;nan;96450.94;4992795;28;20547;-60
2022/04/01 03:28:12;;;;;;;16.93;12.10;;;;;;;2.92;nan;96450.22;4990366;28;20033;-61
2022/04/01 03:30:38;;;;;;;17.83;13.63;;;;;;;2.90;nan;96448.59;4991536;28;20061;-61
2022/04/01 03:33:03;;;;;;;15.40;11.07;;;;;;;2.79;nan;96443.81;4989620;28;20034;-62
2022/04/01 03:35:29;;;;;;;14.43;11.63;;;;;;;2.80;nan;96437.84;4992574;28;20548;-63
2022/04/01 03:37:54;;;;;;;18.03;11.37;;;;;;;2.87;nan;96448.69;4993036;28;20049;-61
2022/04/01 03:40:22;;;;;;;17.47;11.87;;;;;;;2.83;nan;96452.97;4993221;28;20034;-61
2022/04/01 03:42:51;;;;;;;13.80;10.53;;;;;;;2.86;nan;96457.13;4991002;28;20378;-61
2022/04/01 03:45:17;;;;;;;15.87;10.70;;;;;;;2.84;nan;96449.59;4991332;28;20479;-62
2022/04/01 03:47:58;;;;;;;14.13;10.20;;;;;;;2.80;nan;96447.16;4990549;28;20143;-60
2022/04/01 03:50:34;;;;;;;12.20;9.00;;;;;;;2.69;nan;96447.41;4991922;28;20026;-61
2022/04/01 03:53:06;;;;;;;13.83;9.53;;;;;;;2.72;nan;96442.25;4992888;28;20030;-61
2022/04/01 03:55:38;;;;;;;13.77;9.93;;;;;;;2.74;nan;96450.66;4991790;28;20038;-62
2022/04/01 03:58:13;;;;;;;13.90;9.73;;;;;;;2.71;nan;96445.69;4994305;28;20380;-61
2022/04/01 04:00:41;;;;;;;15.25;10.02;;;;;;;2.71;nan;96433.03;4994486;28;20591;-61
2022/04/01 04:03:09;;;;;;;14.57;10.50;;;;;;;2.69;nan;96452.47;4996958;28;20038;-60
2022/04/01 04:05:38;;;;;;;12.90;8.97;;;;;;;2.75;nan;96449.81;4997678;28;20061;-61
2022/04/01 04:08:06;;;;;;;15.80;10.80;;;;;;;2.73;nan;96436.34;4998056;28;20562;-60
2022/04/01 04:10:34;;;;;;;11.97;8.53;;;;;;;2.78;nan;96453.94;4995062;28;20030;-60
2022/04/01 04:13:03;;;;;;;13.60;9.33;;;;;;;2.66;nan;96438.19;4996453;28;20037;-62
2022/04/01 04:15:52;;;;;;;14.07;8.57;;;;;;;2.67;nan;96457.53;4993627;28;20367;-60
2022/04/01 04:18:20;;;;;;;14.47;10.27;;;;;;;2.73;nan;96457.41;4989995;28;20054;-62
2022/04/01 04:20:54;;;;;;;11.77;8.47;;;;;;;2.70;nan;96459.19;4996195;28;20137;-61
2022/04/01 04:23:24;;;;;;;12.23;8.90;;;;;;;2.73;nan;96459.94;4996316;28;20373;-61
2022/04/01 04:26:11;;;;;;;11.73;9.07;;;;;;;2.74;nan;96464.16;4996594;28;20045;-61
2022/04/01 04:28:39;;;;;;;12.33;8.60;;;;;;;2.84;nan;96461.41;4996144;28;20115;-60
2022/04/01 04:31:08;;;;;;;16.47;10.33;;;;;;;2.80;nan;96453.03;4995973;28;20092;-60
2022/04/01 04:33:34;;;;;;;11.37;8.60;;;;;;;2.71;nan;96451.56;4995695;28;20041;-60
2022/04/01 04:36:04;;;;;;;13.20;8.70;;;;;;;2.82;nan;96470.72;4996014;28;20313;-61
2022/04/01 04:38:40;;;;;;;11.60;8.53;;;;;;;2.82;nan;96469.03;4992674;28;20124;-62
2022/04/01 04:41:10;;;;;;;10.47;7.57;;;;;;;2.83;nan;96473.22;4993295;28;20030;-63
2022/04/01 04:43:41;;;;;;;12.80;9.63;;;;;;;2.84;nan;96474.91;4994964;28;20034;-61
2022/04/01 04:46:08;;;;;;;14.97;11.40;;;;;;;2.88;nan;96476.47;4995057;28;20033;-61
2022/04/01 04:48:35;;;;;;;12.20;8.07;;;;;;;2.78;nan;96469.13;4995777;28;20056;-61
2022/04/01 04:51:05;;;;;;;8.33;6.80;;;;;;;2.74;nan;96489.44;4996716;28;20037;-61
2022/04/01 04:53:33;;;;;;;10.23;7.40;;;;;;;2.75;nan;96485.22;4993488;28;20058;-59
2022/04/01 04:55:59;;;;;;;9.60;6.77;;;;;;;2.73;nan;96487.78;4994405;28;20447;-60
2022/04/01 04:58:36;;;;;;;9.93;7.30;;;;;;;2.78;nan;96494.44;4994243;28;20101;-61
2022/04/01 05:01:08;;;;;;;10.57;6.93;;;;;;;2.66;nan;96487.94;4993805;28;20042;-62
2022/04/01 05:03:48;;;;;;;8.87;7.20;;;;;;;2.78;nan;96502.00;4992133;28;20499;-62
2022/04/01 05:06:22;;;;;;;9.20;6.93;;;;;;;2.64;nan;96487.13;4992457;28;20385;-61
2022/04/01 05:09:02;;;;;;;10.03;6.80;;;;;;;2.72;nan;96495.38;4995311;28;20149;-61
2022/04/01 05:11:49;;;;;;;7.53;6.17;;;;;;;2.73;nan;96500.41;4992179;28;20040;-61
2022/04/01 05:14:38;;;;;;;10.37;7.53;;;;;;;2.82;nan;96501.06;4994053;28;20054;-60
2022/04/01 05:17:04;;;;;;;9.80;7.90;;;;;;;2.80;nan;96498.56;4995924;28;20030;-61
2022/04/01 05:19:31;;;;;;;11.30;7.53;;;;;;;2.85;nan;96498.47;4998273;28;20079;-61
2022/04/01 05:22:05;;;;;;;9.57;6.60;;;;;;;2.74;nan;96481.84;4996961;28;20038;-61
2022/04/01 05:24:52;;;;;;;10.13;6.37;;;;;;;2.82;nan;96501.06;4994879;28;20057;-62
2022/04/01 05:27:23;;;;;;;6.90;5.70;;;;;;;2.85;nan;96503.53;4999598;28;20560;-60
2022/04/01 05:30:12;;;;;;;9.43;6.63;;;;;;;2.80;nan;96505.34;4999504;28;20105;-60
2022/04/01 05:32:40;;;;;;;8.37;6.10;;;;;;;2.72;nan;96501.28;4997199;28;20412;-60
2022/04/01 05:35:06;;;;;;;8.77;6.50;;;;;;;2.83;nan;96506.13;4995613;28;20038;-60
2022/04/01 05:37:33;;;;;;;7.90;6.17;;;;;;;2.83;nan;96502.75;5000734;28;20507;-61
2022/04/01 05:40:00;;;;;;;7.40;5.63;;;;;;;2.71;nan;96494.59;5003295;28;20038;-64
2022/04/01 05:42:26;;;;;;;8.27;6.20;;;;;;;2.74;nan;96494.50;4992992;28;20044;-61
2022/04/01 05:44:52;;;;;;;10.40;6.50;;;;;;;2.76;nan;96513.00;4994066;28;20030;-60
2022/04/01 05:47:21;;;;;;;8.60;5.97;;;;;;;2.75;nan;96513.88;4994102;28;20026;-60
2022/04/01 05:49:46;;;;;;;8.03;6.00;;;;;;;2.71;nan;96517.34;4992800;28;20041;-60
2022/04/01 05:52:12;;;;;;;7.40;6.17;;;;;;;2.78;nan;96507.91;4992180;28;20673;-60
2022/04/01 05:54:39;;;;;;;10.90;7.53;;;;;;;2.84;nan;96507.78;4991454;28;20069;-60
2022/04/01 05:57:07;;;;;;;10.53;7.23;;;;;;;2.80;nan;96510.41;4992963;28;20341;-60
2022/04/01 05:59:33;;;;;;;14.67;8.73;;;;;;;2.77;nan;96501.19;4994280;28;20044;-60
2022/04/01 06:02:14;;;;;;;12.33;8.57;;;;;;;2.93;nan;96516.88;4992164;28;20434;-60
2022/04/01 06:05:04;;;;;;;11.30;8.37;;;;;;;3.03;nan;96516.59;4995230;28;20668;-60
2022/04/01 06:07:32;;;;;;;10.70;7.67;;;;;;;3.02;nan;96519.16;4994574;28;20037;-61
2022/04/01 06:10:05;;;;;;;9.40;6.70;;;;;;;2.96;nan;96527.75;4991226;28;20077;-61
2022/04/01 06:12:56;;;;;;;11.60;8.13;;;;;;;2.96;nan;96519.31;4991907;28;20034;-60
2022/04/01 06:16:01;;;;;;;10.63;8.17;;;;;;;3.07;nan;96517.34;4994304;28;20057;-61
2022/04/01 06:18:39;;;;;;;9.27;7.70;;;;;;;2.89;nan;96505.13;4989943;28;20073;-62
2022/04/01 06:21:07;;;;;;;10.40;8.00;;;;;;;2.92;nan;96521.09;4991898;28;20042;-59
2022/04/01 06:23:38;;;;;;;12.77;8.90;;;;;;;2.92;nan;96530.38;4992202;28;20077;-60
2022/04/01 06:26:09;;;;;;;8.87;7.10;;;;;;;2.82;nan;96517.09;4995837;28;20046;-62
2022/04/01 06:28:46;;;;;;;11.10;8.00;;;;;;;2.84;nan;96519.59;4993003;28;20048;-61
2022/04/01 06:31:12;;;;;;;10.97;7.73;;;;;;;2.93;nan;96537.09;4992281;28;20037;-60
2022/04/01 06:33:49;;;;;;;12.07;8.23;;;;;;;2.87;nan;96535.53;4994269;28;20022;-61
2022/04/01 06:36:21;;;;;;;10.07;7.63;;;;;;;2.78;nan;96517.19;4992815;28;20039;-61
2022/04/01 06:38:59;;;;;;;10.60;7.57;;;;;;;2.92;nan;96543.03;4990862;28;20061;-61
2022/04/01 06:41:51;;;;;;;12.37;7.00;;;;;;;2.87;nan;96542.28;4991861;28;20364;-60
2022/04/01 06:44:17;;;;;;;8.57;6.70;;;;;;;2.81;nan;96537.34;4993040;28;20034;-61
2022/04/01 06:46:42;;;;;;;9.83;7.60;;;;;;;2.77;nan;96529.00;4990565;28;20045;-60
2022/04/01 06:49:08;;;;;;;13.37;7.43;;;;;;;2.83;nan;96535.63;4991068;28;20041;-60
2022/04/01 06:51:38;;;;;;;10.47;8.23;;;;;;;2.83;nan;96528.88;4991840;28;20041;-60
2022/04/01 06:54:05;;;;;;;11.27;7.57;;;;;;;2.90;nan;96532.09;4993560;28;20045;-64
2022/04/01 06:56:30;;;;;;;11.03;7.97;;;;;;;3.05;nan;96544.41;4989564;28;20033;-61
2022/04/01 06:58:56;;;;;;;13.67;9.77;;;;;;;2.94;nan;96533.69;4988835;28;20420;-61
2022/04/01 07:01:21;;;;;;;9.73;7.47;;;;;;;2.96;nan;96542.09;4992286;28;20264;-59
2022/04/01 07:03:47;;;;;;;10.23;7.10;;;;;;;2.99;nan;96547.91;4994379;28;20088;-60
2022/04/01 07:06:13;;;;;;;10.80;7.33;;;;;;;2.95;nan;96550.53;4988464;28;20053;-60
2022/04/01 07:08:39;;;;;;;10.53;7.57;;;;;;;3.01;nan;96543.63;4991958;28;20072;-61
2022/04/01 07:11:04;;;;;;;10.63;7.03;;;;;;;2.97;nan;96533.66;4994304;28;20113;-60
2022/04/01 07:13:30;;;;;;;9.30;7.03;;;;;;;3.04;nan;96547.81;4991844;28;20189;-62
2022/04/01 07:15:55;;;;;;;11.33;8.30;;;;;;;2.92;nan;96537.97;4987056;28;20809;-58
2022/04/01 07:18:22;;;;;;;9.07;7.23;;;;;;;2.98;nan;96553.00;4994548;28;20034;-59
2022/04/01 07:20:47;;;;;;;9.30;7.63;;;;;;;3.12;nan;96548.47;4992950;28;20036;-59
2022/04/01 07:23:13;;;;;;;10.23;7.97;;;;;;;3.07;nan;96561.22;4990767;28;20030;-60
2022/04/01 07:25:39;;;;;;;9.50;7.30;;;;;;;2.93;nan;96544.69;4989715;28;20144;-59
2022/04/01 07:28:04;;;;;;;11.90;9.43;;;;;;;2.86;nan;96533.03;4992059;28;20387;-59
2022/04/01 07:30:30;;;;;;;11.17;8.20;;;;;;;3.12;nan;96561.13;4992129;28;21702;-60
2022/04/01 07:32:58;;;;;;;9.37;6.87;;;;;;;3.05;nan;96560.44;4991337;28;20176;-60
2022/04/01 07:35:25;;;;;;;7.67;5.97;;;;;;;3.14;nan;96554.34;4988751;28;20069;-60
2022/04/01 07:37:51;;;;;;;11.40;7.20;;;;;;;3.15;nan;96561.03;4992819;28;20499;-59
2022/04/01 07:40:18;;;;;;;9.33;7.53;;;;;;;3.17;nan;96549.19;4990646;28;20035;-60
2022/04/01 07:42:43;;;;;;;7.87;7.07;;;;;;;3.34;nan;96561.44;4991462;28;20452;-59
2022/04/01 07:45:10;;;;;;;8.90;5.67;;;;;;;3.20;nan;96554.16;4988307;28;20042;-60
2022/04/01 07:47:36;;;;;;;7.67;5.90;;;;;;;3.18;nan;96545.78;4990776;28;20041;-60
2022/04/01 07:50:03;;;;;;;6.80;5.30;;;;;;;3.07;nan;96547.72;4990960;28;20038;-61
2022/04/01 07:52:30;;;;;;;7.00;5.47;;;;;;;3.17;nan;96565.22;4990171;28;20146;-61
2022/04/01 07:54:56;;;;;;;9.87;5.97;;;;;;;3.29;nan;96565.78;4989703;28;20047;-58
2022/04/01 07:57:21;;;;;;;9.13;7.13;;;;;;;3.39;nan;96567.25;4992161;28;20035;-60
2022/04/01 07:59:47;;;;;;;10.30;7.30;;;;;;;3.35;nan;96558.91;4991398;28;20042;-60
2022/04/01 08:02:13;;;;;;;6.53;5.30;;;;;;;3.37;nan;96566.44;4989347;28;20038;-59
2022/04/01 08:04:39;;;;;;;8.90;6.87;;;;;;;3.42;nan;96559.56;4987605;28;20030;-59
2022/04/01 08:07:04;;;;;;;9.60;7.53;;;;;;;3.67;nan;96573.28;4991655;28;20504;-61
2022/04/01 08:09:30;;;;;;;7.30;6.10;;;;;;;3.59;nan;96583.63;4989967;28;20026;-59
2022/04/01 08:11:55;;;;;;;7.77;6.67;;;;;;;3.66;nan;96580.06;4989962;28;20032;-59
2022/04/01 08:14:22;;;;;;;7.33;5.90;;;;;;;3.60;nan;96570.09;4988774;28;20082;-59
2022/04/01 08:16:48;;;;;;;5.93;4.27;;;;;;;3.48;nan;96572.91;4991093;28;20131;-58
2022/04/01 08:19:14;;;;;;;6.87;5.20;;;;;;;3.69;nan;96590.09;4988479;28;20038;-61
2022/04/01 08:21:41;;;;;;;6.10;5.47;;;;;;;3.61;nan;96583.56;4989568;28;20026;-60
2022/04/01 08:24:07;;;;;;;5.27;4.77;;;;;;;3.73;nan;96583.28;4989291;28;20038;-60
2022/04/01 08:26:33;;;;;;;8.07;5.03;;;;;;;3.80;nan;96596.63;4991581;28;20469;-60
2022/04/01 08:28:59;;;;;;;7.27;5.30;;;;;;;3.80;nan;96574.66;4991281;28;20073;-60
2022/04/01 08:31:25;;;;;;;5.50;4.80;;;;;;;3.88;nan;96595.56;4988559;28;20148;-59
2022/04/01 08:33:53;;;;;;;6.47;4.70;;;;;;;3.60;nan;96567.56;4988128;28;20094;-60
2022/04/01 08:36:19;;;;;;;4.97;4.03;;;;;;;3.89;nan;96601.47;4991364;28;20096;-59
2022/04/01 08:38:44;;;;;;;6.93;5.20;;;;;;;3.88;nan;96590.47;4989849;28;20038;-59
2022/04/01 08:41:10;;;;;;;4.90;4.27;;;;;;;3.73;nan;96585.81;4988823;28;20390;-61
2022/04/01 08:43:42;;;;;;;5.50;4.90;;;;;;;3.82;nan;96599.97;4990525;28;20489;-59
2022/04/01 08:46:09;;;;;;;6.33;5.13;;;;;;;3.99;nan;96603.69;4992857;28;20034;-59
2022/04/01 08:48:36;;;;;;;5.83;4.83;;;;;;;4.05;nan;96583.28;4991765;28;20465;-59
2022/04/01 08:51:01;;;;;;;7.00;4.83;;;;;;;4.11;nan;96602.56;4992404;28;20480;-60
2022/04/01 08:53:27;;;;;;;6.27;4.77;;;;;;;4.13;nan;96608.41;4993434;28;20037;-60
2022/04/01 08:55:56;;;;;;;5.13;4.47;;;;;;;4.19;nan;96613.34;4995527;28;20496;-60
2022/04/01 08:58:23;;;;;;;6.40;5.67;;;;;;;4.34;nan;96615.47;4991630;28;20030;-56
2022/04/01 09:00:52;;;;;;;4.67;3.93;;;;;;;4.05;nan;96608.63;4992130;28;20456;-57
2022/04/01 09:03:21;;;;;;;4.97;4.43;;;;;;;4.04;nan;96613.72;4993253;28;20034;-59
2022/04/01 09:05:57;;;;;;;5.97;5.20;;;;;;;4.10;nan;96609.34;4993732;28;20038;-59
2022/04/01 09:08:38;;;;;;;5.67;5.03;;;;;;;3.97;nan;96602.94;4992528;28;20042;-60
2022/04/01 09:11:06;;;;;;;4.73;4.23;;;;;;;3.99;nan;96605.41;4994578;28;20117;-59
2022/04/01 09:13:44;;;;;;;5.30;4.80;;;;;;;4.07;nan;96613.66;4994245;28;20030;-58
2022/04/01 09:16:33;;;;;;;5.00;4.50;;;;;;;4.27;nan;96620.75;4990501;28;20392;-61
2022/04/01 09:19:01;;;;;;;5.83;4.60;;;;;;;4.22;nan;96613.25;4994593;28;20645;-59
2022/04/01 09:21:39;;;;;;;4.90;4.50;;;;;;;4.19;nan;96618.41;4995098;28;20060;-55
2022/04/01 09:24:05;;;;;;;5.00;4.50;;;;;;;4.06;nan;96625.50;4991254;28;20057;-57
2022/04/01 09:26:39;;;;;;;5.50;4.67;;;;;;;3.96;nan;96628.31;4992754;28;20341;-63
2022/04/01 09:29:10;;;;;;;6.20;5.60;;;;;;;4.08;nan;96621.22;4992150;28;20603;-60
2022/04/01 09:31:40;;;;;;;6.80;5.43;;;;;;;3.99;nan;96628.22;4992832;28;20117;-63
2022/04/01 09:34:09;;;;;;;5.37;4.13;;;;;;;3.85;nan;96641.25;4993974;28;20528;-62
2022/04/01 09:36:39;;;;;;;4.80;4.33;;;;;;;3.85;nan;96635.34;4992120;28;20491;-61
2022/04/01 09:39:16;;;;;;;9.77;7.33;;;;;;;3.64;nan;96624.03;4990595;28;20045;-63
2022/04/01 09:41:47;;;;;;;6.77;6.07;;;;;;;3.75;nan;96633.91;4990887;28;20121;-62
2022/04/01 09:44:16;;;;;;;6.73;6.10;;;;;;;3.79;nan;96610.16;4993811;28;20638;-61
2022/04/01 09:46:44;;;;;;;7.03;5.53;;;;;;;4.09;nan;96639.81;4991215;28;20656;-62
2022/04/01 09:49:14;;;;;;;5.80;4.73;;;;;;;3.99;nan;96649.34;4991406;28;20026;-63
2022/04/01 09:51:43;;;;;;;7.10;6.47;;;;;;;4.16;nan;96643.84;4990094;28;20048;-62
2022/04/01 09:54:09;;;;;;;10.50;6.33;;;;;;;4.12;nan;96647.31;4991975;28;20153;-61
2022/04/01 09:56:42;;;;;;;7.17;5.73;;;;;;;3.81;nan;96628.69;4992252;28;20598;-61
2022/04/01 09:59:09;;;;;;;10.03;5.60;;;;;;;3.91;nan;96632.66;4993169;28;20362;-61
2022/04/01 10:01:36;;;;;;;9.70;6.43;;;;;;;4.19;nan;96653.91;5001392;28;20030;-61
2022/04/01 10:04:03;;;;;;;7.70;5.53;;;;;;;4.21;nan;96648.78;4997559;28;20125;-61
2022/04/01 10:06:31;;;;;;;4.90;4.50;;;;;;;4.05;nan;96638.22;4989892;28;20377;-62
2022/04/01 10:09:00;;;;;;;5.93;5.07;;;;;;;4.17;nan;96635.38;4992400;28;20046;-61
2022/04/01 10:11:27;;;;;;;7.20;4.80;;;;;;;4.41;nan;96652.47;4993175;28;20137;-62
2022/04/01 10:13:54;;;;;;;5.83;5.23;;;;;;;4.44;nan;96649.88;4992253;28;20358;-62
2022/04/01 10:16:21;;;;;;;5.63;4.73;;;;;;;4.55;nan;96655.47;4989654;28;20026;-62
2022/04/01 10:18:48;;;;;;;5.53;5.00;;;;;;;4.45;nan;96645.63;4992105;28;20030;-61
2022/04/01 10:21:18;;;;;;;5.37;4.27;;;;;;;4.50;nan;96652.22;4993844;28;20025;-61
2022/04/01 10:23:53;;;;;;;6.40;4.83;;;;;;;4.57;nan;96651.22;4991115;28;20034;-62
2022/04/01 10:26:20;;;;;;;;;;;;;;;4.74;nan;96660.06;4990695;28;20177;-61
2022/04/01 10:28:50;;;;;;;5.20;4.70;;;;;;;4.81;nan;96643.78;4991156;28;20368;-61
2022/04/01 10:31:16;;;;;;;5.97;5.13;;;;;;;4.60;nan;96666.34;4993163;28;20033;-61
2022/04/01 10:33:41;;;;;;;6.70;5.27;;;;;;;4.53;nan;96654.69;4990343;28;20506;-63
2022/04/01 10:36:22;;;;;;;6.23;4.80;;;;;;;4.51;nan;96658.97;4989003;28;20026;-62
2022/04/01 10:38:50;;;;;;;6.20;5.60;;;;;;;4.27;nan;96654.56;4991162;28;20439;-62
2022/04/01 10:41:16;;;;;;;6.10;4.93;;;;;;;4.31;nan;96645.16;4990153;28;20117;-63
2022/04/01 10:43:44;;;;;;;8.53;6.37;;;;;;;4.28;nan;96660.47;4990317;28;20026;-62
2022/04/01 10:46:19;;;;;;;6.30;5.70;;;;;;;4.17;nan;96645.50;4993188;28;20034;-62
2022/04/01 10:52:21;;;;;;;6.43;5.83;;;;;;;4.35;nan;96678.00;4990747;28;20065;-62
2022/04/01 10:55:10;;;;;;;5.50;4.95;;;;;;;4.42;nan;96669.34;4991555;28;20116;-61
2022/04/01 10:57:47;;;;;;;6.10;5.50;;;;;;;4.16;nan;96664.13;4991679;28;20045;-60
2022/04/01 11:00:15;;;;;;;7.03;6.17;;;;;;;4.28;nan;96653.69;4989376;28;20029;-61
2022/04/01 11:02:43;;;;;;;8.73;6.83;;;;;;;4.40;nan;96676.19;5006210;28;20141;-61
2022/04/01 11:05:23;;;;;;;7.83;5.97;;;;;;;4.36;nan;96673.78;4992742;28;20608;-62
2022/04/01 11:08:21;;;;;;;7.17;5.87;;;;;;;4.38;nan;96688.06;4989213;28;20030;-61
2022/04/01 11:11:06;;;;;;;10.10;6.47;;;;;;;4.40;nan;96691.41;4989974;28;20038;-61
2022/04/01 11:13:33;;;;;;;7.65;6.72;;;;;;;4.23;nan;96680.03;4991402;28;20510;-62
2022/04/01 11:16:13;;;;;;;7.27;5.80;;;;;;;4.33;nan;96691.63;4992817;28;20359;-61
2022/04/01 11:19:17;;;;;;;6.53;5.67;;;;;;;4.21;nan;96700.34;4989293;28;20034;-61
2022/04/01 11:21:45;;;;;;;7.27;6.07;;;;;;;4.29;nan;96687.47;4991443;28;20441;-61
2022/04/01 11:24:34;;;;;;;6.93;6.23;;;;;;;4.53;nan;96697.84;4993042;28;20106;-61
2022/04/01 11:27:26;;;;;;;8.13;6.13;;;;;;;4.57;nan;96696.03;4988192;28;20660;-61
2022/04/01 11:30:14;;;;;;;9.07;5.87;;;;;;;4.77;nan;96695.50;4988254;28;20041;-61
2022/04/01 11:32:48;;;;;;;5.73;5.13;;;;;;;4.66;nan;96692.44;4991443;28;20049;-61
2022/04/01 11:35:16;;;;;;;6.77;5.73;;;;;;;4.67;nan;96694.09;4992151;28;20448;-61
2022/04/01 11:37:49;;;;;;;6.43;5.73;;;;;;;4.53;nan;96689.38;4989527;28;20062;-62
2022/04/01 11:40:21;;;;;;;6.70;5.90;;;;;;;4.48;nan;96689.50;4991805;28;20038;-61
2022/04/01 11:42:54;;;;;;;7.47;5.70;;;;;;;4.57;nan;96701.13;4992839;28;20092;-63
2022/04/01 11:45:20;;;;;;;6.70;5.80;;;;;;;4.62;nan;96695.94;4990281;28;20488;-61
2022/04/01 11:47:47;;;;;;;6.47;5.87;;;;;;;4.70;nan;96701.63;4989601;28;20030;-61
2022/04/01 11:50:15;;;;;;;6.43;5.47;;;;;;;4.60;nan;96701.03;4991823;28;20038;-62
2022/04/01 11:52:42;;;;;;;7.73;6.20;;;;;;;4.58;nan;96708.66;4993100;28;20080;-62
2022/04/01 11:55:23;;;;;;;6.97;5.27;;;;;;;4.56;nan;96690.13;4990406;28;20160;-64
2022/04/01 11:57:51;;;;;;;8.57;5.93;;;;;;;4.54;nan;96683.44;4990339;28;20026;-62
2022/04/01 12:00:19;;;;;;;8.93;6.43;;;;;;;4.81;nan;96697.06;4990995;28;20484;-62
2022/04/01 12:02:47;;;;;;;7.67;5.90;;;;;;;4.84;nan;96696.97;4991729;28;20488;-61
2022/04/01 12:05:13;;;;;;;13.73;7.53;;;;;;;5.00;nan;96693.16;4990475;28;20880;-62
2022/04/01 12:10:29;;;;;;;6.20;5.57;;;;;;;5.20;nan;96701.03;4992333;28;20140;-61
2022/04/01 12:12:59;;;;;;;11.50;7.27;;;;;;;5.23;nan;96700.94;4990366;28;20492;-63